タヒチ島 の空港の天気 - METARとTAF

タヒチ・ファアア国際空港 ( NTAA / PPT ) - フランス領ポリネシア タヒチ島
飛行場実況気象(Metar)
観測時間01/19 05:30 TAHT (01/19 15:30 UTC)
風向・風速東南東 2m/s
視程10km以上
天気現象
なし
気温26℃
湿度79%
気圧1012hPa
METARNTAA 191530Z AUTO 11003KT 9999 NCD 26/22 Q1012 NOSIG
過去の天気等 Google飛行場航空写真 Wunderground天気予報

過去48時間のMETAR

飛行場予報(TAF)
発表時間: 1/19 01:00 TAHT (1/19 11:00 UTC)
予報対象時間: 19日2時 TAHT ~ 20日8時 TAHT
風向・風速不定 3m/s
視程10km以上
少しの雲 雲底高度 700m
全天の4割程度の雲 雲底高度 1830m
19日9時 TAHT ~ 19日11時 TAHT に徐々に
風向・風速北東 8m/s
19日16時 TAHT ~ 19日18時 TAHT に徐々に
風向・風速不定 3m/s
TAF NTAA 191100Z 1912/2018 VRB05KT 9999 FEW023 SCT060
BECMG 1919/1921 05015KT
BECMG 2002/2004 VRB05KT